sensor_id;sensor_type;location;lat;lon;timestamp;P1;durP1;ratioP1;P2;durP2;ratioP2
41219;SDS011;26951;47.338;9.196;2023-08-24T00:02:01;5.38;;;4.15;;
41219;SDS011;26951;47.338;9.196;2023-08-24T00:04:45;7.88;;;4.03;;
41219;SDS011;26951;47.338;9.196;2023-08-24T00:07:30;4.97;;;4.47;;
41219;SDS011;26951;47.338;9.196;2023-08-24T00:10:14;6.72;;;4.65;;
41219;SDS011;26951;47.338;9.196;2023-08-24T00:12:57;4.45;;;3.90;;
41219;SDS011;26951;47.338;9.196;2023-08-24T00:15:41;4.57;;;3.35;;
41219;SDS011;26951;47.338;9.196;2023-08-24T00:18:25;4.32;;;3.45;;
41219;SDS011;26951;47.338;9.196;2023-08-24T00:21:10;6.40;;;3.90;;
41219;SDS011;26951;47.338;9.196;2023-08-24T00:23:56;8.48;;;4.65;;
41219;SDS011;26951;47.338;9.196;2023-08-24T00:26:40;6.22;;;4.00;;
41219;SDS011;26951;47.338;9.196;2023-08-24T00:29:24;6.97;;;3.90;;
41219;SDS011;26951;47.338;9.196;2023-08-24T00:32:08;6.47;;;4.00;;
41219;SDS011;26951;47.338;9.196;2023-08-24T00:34:52;4.28;;;3.60;;
41219;SDS011;26951;47.338;9.196;2023-08-24T00:37:37;5.43;;;4.35;;
41219;SDS011;26951;47.338;9.196;2023-08-24T00:40:21;5.90;;;4.00;;
41219;SDS011;26951;47.338;9.196;2023-08-24T00:43:06;4.72;;;3.97;;
41219;SDS011;26951;47.338;9.196;2023-08-24T00:45:50;5.68;;;4.15;;
41219;SDS011;26951;47.338;9.196;2023-08-24T00:48:35;6.25;;;4.40;;
41219;SDS011;26951;47.338;9.196;2023-08-24T00:51:19;6.38;;;4.45;;
41219;SDS011;26951;47.338;9.196;2023-08-24T00:54:04;4.80;;;4.07;;
41219;SDS011;26951;47.338;9.196;2023-08-24T00:56:48;5.65;;;4.70;;
41219;SDS011;26951;47.338;9.196;2023-08-24T00:59:32;4.68;;;4.13;;
41219;SDS011;26951;47.338;9.196;2023-08-24T01:05:02;6.00;;;4.50;;
41219;SDS011;26951;47.338;9.196;2023-08-24T01:07:48;6.53;;;4.20;;
41219;SDS011;26951;47.338;9.196;2023-08-24T01:10:57;5.72;;;4.47;;
41219;SDS011;26951;47.338;9.196;2023-08-24T01:19:55;6.35;;;4.78;;
41219;SDS011;26951;47.338;9.196;2023-08-24T01:26:27;6.30;;;4.57;;
41219;SDS011;26951;47.338;9.196;2023-08-24T01:28:55;5.32;;;4.10;;
41219;SDS011;26951;47.338;9.196;2023-08-24T01:31:41;5.45;;;4.22;;
41219;SDS011;26951;47.338;9.196;2023-08-24T01:34:26;7.57;;;4.28;;
41219;SDS011;26951;47.338;9.196;2023-08-24T01:37:10;7.15;;;4.72;;
41219;SDS011;26951;47.338;9.196;2023-08-24T01:40:00;5.78;;;3.90;;
41219;SDS011;26951;47.338;9.196;2023-08-24T01:43:01;7.50;;;3.60;;
41219;SDS011;26951;47.338;9.196;2023-08-24T01:45:47;7.40;;;4.10;;
41219;SDS011;26951;47.338;9.196;2023-08-24T01:48:31;6.40;;;3.83;;
41219;SDS011;26951;47.338;9.196;2023-08-24T01:51:16;9.82;;;3.80;;
41219;SDS011;26951;47.338;9.196;2023-08-24T01:54:01;7.68;;;3.83;;
41219;SDS011;26951;47.338;9.196;2023-08-24T01:56:46;6.45;;;3.70;;
41219;SDS011;26951;47.338;9.196;2023-08-24T01:59:30;6.43;;;3.50;;
41219;SDS011;26951;47.338;9.196;2023-08-24T02:02:15;6.93;;;3.73;;
41219;SDS011;26951;47.338;9.196;2023-08-24T02:05:00;6.22;;;3.67;;
41219;SDS011;26951;47.338;9.196;2023-08-24T02:07:44;8.18;;;3.60;;
41219;SDS011;26951;47.338;9.196;2023-08-24T02:10:29;5.72;;;3.80;;
41219;SDS011;26951;47.338;9.196;2023-08-24T02:13:13;3.50;;;3.20;;
41219;SDS011;26951;47.338;9.196;2023-08-24T02:16:01;5.88;;;3.63;;
41219;SDS011;26951;47.338;9.196;2023-08-24T02:18:46;4.68;;;3.00;;
41219;SDS011;26951;47.338;9.196;2023-08-24T02:21:30;7.43;;;4.40;;
41219;SDS011;26951;47.338;9.196;2023-08-24T02:24:14;4.00;;;3.60;;
41219;SDS011;26951;47.338;9.196;2023-08-24T02:26:59;7.75;;;3.83;;
41219;SDS011;26951;47.338;9.196;2023-08-24T02:29:43;8.53;;;4.10;;
41219;SDS011;26951;47.338;9.196;2023-08-24T02:32:28;3.88;;;3.30;;
41219;SDS011;26951;47.338;9.196;2023-08-24T02:35:12;5.57;;;3.78;;
41219;SDS011;26951;47.338;9.196;2023-08-24T02:37:56;6.10;;;3.97;;
41219;SDS011;26951;47.338;9.196;2023-08-24T02:40:41;5.57;;;3.42;;
41219;SDS011;26951;47.338;9.196;2023-08-24T02:43:25;4.68;;;3.42;;
41219;SDS011;26951;47.338;9.196;2023-08-24T02:46:09;4.50;;;3.33;;
41219;SDS011;26951;47.338;9.196;2023-08-24T02:48:53;5.17;;;3.37;;
41219;SDS011;26951;47.338;9.196;2023-08-24T02:51:38;6.72;;;3.80;;
41219;SDS011;26951;47.338;9.196;2023-08-24T02:54:22;8.00;;;3.55;;
41219;SDS011;26951;47.338;9.196;2023-08-24T02:57:07;4.60;;;3.40;;
41219;SDS011;26951;47.338;9.196;2023-08-24T02:59:51;6.97;;;3.92;;
41219;SDS011;26951;47.338;9.196;2023-08-24T03:02:35;7.00;;;3.40;;
41219;SDS011;26951;47.338;9.196;2023-08-24T03:05:20;5.22;;;4.22;;
41219;SDS011;26951;47.338;9.196;2023-08-24T03:08:04;6.43;;;3.60;;
41219;SDS011;26951;47.338;9.196;2023-08-24T03:10:48;6.05;;;3.67;;
41219;SDS011;26951;47.338;9.196;2023-08-24T03:13:35;4.72;;;2.92;;
41219;SDS011;26951;47.338;9.196;2023-08-24T03:16:20;7.10;;;3.60;;
41219;SDS011;26951;47.338;9.196;2023-08-24T03:19:04;5.40;;;3.50;;
41219;SDS011;26951;47.338;9.196;2023-08-24T03:21:48;7.35;;;4.55;;
41219;SDS011;26951;47.338;9.196;2023-08-24T03:24:33;9.70;;;4.20;;
41219;SDS011;26951;47.338;9.196;2023-08-24T03:27:17;5.68;;;3.75;;
41219;SDS011;26951;47.338;9.196;2023-08-24T03:30:01;5.90;;;3.88;;
41219;SDS011;26951;47.338;9.196;2023-08-24T03:32:48;5.03;;;3.55;;
41219;SDS011;26951;47.338;9.196;2023-08-24T03:35:32;7.80;;;3.88;;
41219;SDS011;26951;47.338;9.196;2023-08-24T03:38:17;8.55;;;3.60;;
41219;SDS011;26951;47.338;9.196;2023-08-24T03:41:01;5.05;;;3.40;;
41219;SDS011;26951;47.338;9.196;2023-08-24T03:43:49;8.82;;;3.75;;
41219;SDS011;26951;47.338;9.196;2023-08-24T03:46:33;5.70;;;3.80;;
41219;SDS011;26951;47.338;9.196;2023-08-24T03:49:18;4.13;;;3.22;;
41219;SDS011;26951;47.338;9.196;2023-08-24T03:52:02;6.55;;;3.55;;
41219;SDS011;26951;47.338;9.196;2023-08-24T03:54:46;9.15;;;3.35;;
41219;SDS011;26951;47.338;9.196;2023-08-24T03:57:31;6.93;;;3.60;;
41219;SDS011;26951;47.338;9.196;2023-08-24T04:00:15;5.67;;;3.63;;
41219;SDS011;26951;47.338;9.196;2023-08-24T04:03:00;5.38;;;3.10;;
41219;SDS011;26951;47.338;9.196;2023-08-24T04:05:45;6.28;;;3.85;;
41219;SDS011;26951;47.338;9.196;2023-08-24T04:08:30;6.33;;;3.10;;
41219;SDS011;26951;47.338;9.196;2023-08-24T04:11:14;5.43;;;3.58;;
41219;SDS011;26951;47.338;9.196;2023-08-24T04:13:58;5.30;;;3.70;;
41219;SDS011;26951;47.338;9.196;2023-08-24T04:16:42;7.22;;;3.25;;
41219;SDS011;26951;47.338;9.196;2023-08-24T04:19:26;8.05;;;3.10;;
41219;SDS011;26951;47.338;9.196;2023-08-24T04:22:10;6.30;;;3.72;;
41219;SDS011;26951;47.338;9.196;2023-08-24T04:24:54;10.98;;;3.85;;
41219;SDS011;26951;47.338;9.196;2023-08-24T04:27:38;5.32;;;3.55;;
41219;SDS011;26951;47.338;9.196;2023-08-24T04:30:22;11.63;;;4.47;;
41219;SDS011;26951;47.338;9.196;2023-08-24T04:33:06;4.93;;;3.35;;
41219;SDS011;26951;47.338;9.196;2023-08-24T04:35:50;6.60;;;3.60;;
41219;SDS011;26951;47.338;9.196;2023-08-24T04:38:34;8.48;;;3.20;;
41219;SDS011;26951;47.338;9.196;2023-08-24T04:41:19;9.90;;;3.83;;
41219;SDS011;26951;47.338;9.196;2023-08-24T04:44:03;5.80;;;4.10;;
41219;SDS011;26951;47.338;9.196;2023-08-24T04:46:47;9.88;;;3.53;;
41219;SDS011;26951;47.338;9.196;2023-08-24T04:49:32;8.07;;;4.05;;
41219;SDS011;26951;47.338;9.196;2023-08-24T04:52:16;9.38;;;4.45;;
41219;SDS011;26951;47.338;9.196;2023-08-24T04:55:00;6.90;;;3.50;;
41219;SDS011;26951;47.338;9.196;2023-08-24T04:57:44;7.22;;;3.65;;
41219;SDS011;26951;47.338;9.196;2023-08-24T05:00:28;5.85;;;2.92;;
41219;SDS011;26951;47.338;9.196;2023-08-24T05:03:12;5.65;;;3.20;;
41219;SDS011;26951;47.338;9.196;2023-08-24T05:05:57;7.30;;;3.30;;
41219;SDS011;26951;47.338;9.196;2023-08-24T05:08:41;6.38;;;3.00;;
41219;SDS011;26951;47.338;9.196;2023-08-24T05:11:26;8.57;;;3.30;;
41219;SDS011;26951;47.338;9.196;2023-08-24T05:14:12;8.52;;;4.03;;
41219;SDS011;26951;47.338;9.196;2023-08-24T05:16:57;9.73;;;3.55;;
41219;SDS011;26951;47.338;9.196;2023-08-24T05:19:41;5.28;;;3.30;;
41219;SDS011;26951;47.338;9.196;2023-08-24T05:22:25;7.20;;;3.58;;
41219;SDS011;26951;47.338;9.196;2023-08-24T05:25:10;6.03;;;3.25;;
41219;SDS011;26951;47.338;9.196;2023-08-24T05:27:54;5.47;;;3.80;;
41219;SDS011;26951;47.338;9.196;2023-08-24T05:30:38;10.30;;;3.58;;
41219;SDS011;26951;47.338;9.196;2023-08-24T05:33:22;3.92;;;3.08;;
41219;SDS011;26951;47.338;9.196;2023-08-24T05:36:07;6.95;;;3.80;;
41219;SDS011;26951;47.338;9.196;2023-08-24T05:38:51;6.47;;;3.42;;
41219;SDS011;26951;47.338;9.196;2023-08-24T05:41:39;6.43;;;3.63;;
41219;SDS011;26951;47.338;9.196;2023-08-24T05:44:23;8.38;;;3.22;;
41219;SDS011;26951;47.338;9.196;2023-08-24T05:47:07;8.68;;;4.38;;
41219;SDS011;26951;47.338;9.196;2023-08-24T05:49:51;5.15;;;3.83;;
41219;SDS011;26951;47.338;9.196;2023-08-24T05:52:35;5.30;;;3.78;;
41219;SDS011;26951;47.338;9.196;2023-08-24T05:55:19;4.80;;;3.30;;
41219;SDS011;26951;47.338;9.196;2023-08-24T05:58:03;8.02;;;4.50;;
41219;SDS011;26951;47.338;9.196;2023-08-24T06:00:48;8.20;;;4.18;;
41219;SDS011;26951;47.338;9.196;2023-08-24T06:03:39;6.13;;;3.67;;
41219;SDS011;26951;47.338;9.196;2023-08-24T06:06:23;7.35;;;3.70;;
41219;SDS011;26951;47.338;9.196;2023-08-24T06:09:07;7.10;;;3.65;;
41219;SDS011;26951;47.338;9.196;2023-08-24T06:11:51;4.97;;;3.60;;
41219;SDS011;26951;47.338;9.196;2023-08-24T06:14:35;6.30;;;3.58;;
41219;SDS011;26951;47.338;9.196;2023-08-24T06:17:19;9.98;;;3.60;;
41219;SDS011;26951;47.338;9.196;2023-08-24T06:20:04;5.38;;;3.25;;
41219;SDS011;26951;47.338;9.196;2023-08-24T06:22:48;5.57;;;3.92;;
41219;SDS011;26951;47.338;9.196;2023-08-24T06:25:33;6.70;;;3.72;;
41219;SDS011;26951;47.338;9.196;2023-08-24T06:28:19;4.95;;;3.15;;
41219;SDS011;26951;47.338;9.196;2023-08-24T06:31:03;4.90;;;3.10;;
41219;SDS011;26951;47.338;9.196;2023-08-24T06:33:48;8.13;;;3.92;;
41219;SDS011;26951;47.338;9.196;2023-08-24T06:36:33;5.40;;;3.65;;
41219;SDS011;26951;47.338;9.196;2023-08-24T06:39:17;7.85;;;3.40;;
41219;SDS011;26951;47.338;9.196;2023-08-24T06:42:01;5.40;;;3.03;;
41219;SDS011;26951;47.338;9.196;2023-08-24T06:44:46;5.13;;;3.00;;
41219;SDS011;26951;47.338;9.196;2023-08-24T06:47:34;4.70;;;3.40;;
41219;SDS011;26951;47.338;9.196;2023-08-24T06:50:18;5.32;;;3.60;;
41219;SDS011;26951;47.338;9.196;2023-08-24T06:53:03;9.13;;;3.80;;
41219;SDS011;26951;47.338;9.196;2023-08-24T06:55:53;3.75;;;2.90;;
41219;SDS011;26951;47.338;9.196;2023-08-24T06:58:38;8.15;;;3.47;;
41219;SDS011;26951;47.338;9.196;2023-08-24T07:01:22;4.80;;;3.80;;
41219;SDS011;26951;47.338;9.196;2023-08-24T07:04:09;8.13;;;3.70;;
41219;SDS011;26951;47.338;9.196;2023-08-24T07:06:53;7.65;;;3.25;;
41219;SDS011;26951;47.338;9.196;2023-08-24T07:09:37;8.30;;;3.45;;
41219;SDS011;26951;47.338;9.196;2023-08-24T07:12:21;7.23;;;3.57;;
41219;SDS011;26951;47.338;9.196;2023-08-24T07:15:06;5.28;;;2.95;;
41219;SDS011;26951;47.338;9.196;2023-08-24T07:17:51;6.40;;;3.78;;
41219;SDS011;26951;47.338;9.196;2023-08-24T07:20:36;8.63;;;3.25;;
41219;SDS011;26951;47.338;9.196;2023-08-24T07:23:20;8.77;;;3.95;;
41219;SDS011;26951;47.338;9.196;2023-08-24T07:26:05;8.53;;;3.87;;
41219;SDS011;26951;47.338;9.196;2023-08-24T07:28:49;12.73;;;3.63;;
41219;SDS011;26951;47.338;9.196;2023-08-24T07:31:33;7.97;;;3.35;;
41219;SDS011;26951;47.338;9.196;2023-08-24T07:34:17;9.17;;;3.27;;
41219;SDS011;26951;47.338;9.196;2023-08-24T07:37:01;10.03;;;2.63;;
41219;SDS011;26951;47.338;9.196;2023-08-24T07:39:45;12.23;;;3.72;;
41219;SDS011;26951;47.338;9.196;2023-08-24T07:42:29;6.77;;;3.63;;
41219;SDS011;26951;47.338;9.196;2023-08-24T07:45:13;8.87;;;2.77;;
41219;SDS011;26951;47.338;9.196;2023-08-24T07:47:58;8.35;;;3.70;;
41219;SDS011;26951;47.338;9.196;2023-08-24T07:50:41;14.43;;;3.47;;
41219;SDS011;26951;47.338;9.196;2023-08-24T07:53:27;13.02;;;4.38;;
41219;SDS011;26951;47.338;9.196;2023-08-24T07:56:11;12.25;;;3.85;;
41219;SDS011;26951;47.338;9.196;2023-08-24T07:58:55;10.82;;;3.90;;
41219;SDS011;26951;47.338;9.196;2023-08-24T08:01:39;12.68;;;3.58;;
41219;SDS011;26951;47.338;9.196;2023-08-24T08:04:23;10.00;;;3.90;;
41219;SDS011;26951;47.338;9.196;2023-08-24T08:07:07;14.45;;;3.53;;
41219;SDS011;26951;47.338;9.196;2023-08-24T08:09:52;11.25;;;4.03;;
41219;SDS011;26951;47.338;9.196;2023-08-24T08:12:36;10.95;;;3.90;;
41219;SDS011;26951;47.338;9.196;2023-08-24T08:15:20;12.18;;;4.38;;
41219;SDS011;26951;47.338;9.196;2023-08-24T08:18:05;11.02;;;4.03;;
41219;SDS011;26951;47.338;9.196;2023-08-24T08:23:41;7.47;;;4.28;;
41219;SDS011;26951;47.338;9.196;2023-08-24T08:26:25;11.17;;;4.23;;
41219;SDS011;26951;47.338;9.196;2023-08-24T08:29:09;8.15;;;3.80;;
41219;SDS011;26951;47.338;9.196;2023-08-24T08:31:53;10.18;;;4.03;;
41219;SDS011;26951;47.338;9.196;2023-08-24T08:34:38;10.02;;;4.57;;
41219;SDS011;26951;47.338;9.196;2023-08-24T08:37:22;15.88;;;4.43;;
41219;SDS011;26951;47.338;9.196;2023-08-24T08:40:09;8.70;;;4.00;;
41219;SDS011;26951;47.338;9.196;2023-08-24T08:42:55;11.90;;;5.03;;
41219;SDS011;26951;47.338;9.196;2023-08-24T08:45:40;10.52;;;4.50;;
41219;SDS011;26951;47.338;9.196;2023-08-24T08:48:25;10.93;;;3.60;;
41219;SDS011;26951;47.338;9.196;2023-08-24T08:51:09;10.57;;;4.63;;
41219;SDS011;26951;47.338;9.196;2023-08-24T08:53:55;10.43;;;4.80;;
41219;SDS011;26951;47.338;9.196;2023-08-24T09:02:13;10.10;;;4.35;;
41219;SDS011;26951;47.338;9.196;2023-08-24T09:04:59;8.52;;;4.63;;
41219;SDS011;26951;47.338;9.196;2023-08-24T09:07:44;10.82;;;4.70;;
41219;SDS011;26951;47.338;9.196;2023-08-24T09:10:28;12.77;;;5.03;;
41219;SDS011;26951;47.338;9.196;2023-08-24T09:13:12;8.00;;;4.40;;
41219;SDS011;26951;47.338;9.196;2023-08-24T09:16:03;10.98;;;4.50;;
41219;SDS011;26951;47.338;9.196;2023-08-24T09:18:49;8.57;;;4.45;;
41219;SDS011;26951;47.338;9.196;2023-08-24T09:21:36;9.45;;;4.30;;
41219;SDS011;26951;47.338;9.196;2023-08-24T09:24:28;9.80;;;4.65;;
41219;SDS011;26951;47.338;9.196;2023-08-24T09:27:18;6.25;;;4.32;;
41219;SDS011;26951;47.338;9.196;2023-08-24T09:30:03;12.73;;;4.68;;
41219;SDS011;26951;47.338;9.196;2023-08-24T09:32:49;8.18;;;4.45;;
41219;SDS011;26951;47.338;9.196;2023-08-24T09:35:34;11.23;;;5.40;;
41219;SDS011;26951;47.338;9.196;2023-08-24T09:38:22;9.45;;;4.85;;
41219;SDS011;26951;47.338;9.196;2023-08-24T09:41:06;13.77;;;5.45;;
41219;SDS011;26951;47.338;9.196;2023-08-24T09:43:51;13.32;;;5.28;;
41219;SDS011;26951;47.338;9.196;2023-08-24T09:46:35;11.27;;;5.78;;
41219;SDS011;26951;47.338;9.196;2023-08-24T09:49:24;9.98;;;5.38;;
41219;SDS011;26951;47.338;9.196;2023-08-24T09:52:10;13.25;;;5.13;;
41219;SDS011;26951;47.338;9.196;2023-08-24T09:54:54;12.43;;;4.93;;
41219;SDS011;26951;47.338;9.196;2023-08-24T09:57:39;8.13;;;4.90;;
41219;SDS011;26951;47.338;9.196;2023-08-24T10:00:24;10.88;;;5.07;;
41219;SDS011;26951;47.338;9.196;2023-08-24T10:03:09;12.25;;;6.03;;
41219;SDS011;26951;47.338;9.196;2023-08-24T10:05:57;17.58;;;4.40;;
41219;SDS011;26951;47.338;9.196;2023-08-24T10:08:46;12.45;;;4.57;;
41219;SDS011;26951;47.338;9.196;2023-08-24T10:11:34;10.98;;;5.43;;
41219;SDS011;26951;47.338;9.196;2023-08-24T10:14:31;16.38;;;5.50;;
41219;SDS011;26951;47.338;9.196;2023-08-24T10:17:19;14.77;;;4.72;;
41219;SDS011;26951;47.338;9.196;2023-08-24T10:20:06;12.50;;;4.88;;
41219;SDS011;26951;47.338;9.196;2023-08-24T10:22:52;10.80;;;4.32;;
41219;SDS011;26951;47.338;9.196;2023-08-24T10:25:37;10.48;;;4.80;;
41219;SDS011;26951;47.338;9.196;2023-08-24T10:28:23;8.85;;;4.57;;
41219;SDS011;26951;47.338;9.196;2023-08-24T10:31:10;12.98;;;4.25;;
41219;SDS011;26951;47.338;9.196;2023-08-24T10:33:56;13.55;;;5.10;;
41219;SDS011;26951;47.338;9.196;2023-08-24T10:36:42;12.48;;;4.75;;
41219;SDS011;26951;47.338;9.196;2023-08-24T10:39:26;14.23;;;5.30;;
41219;SDS011;26951;47.338;9.196;2023-08-24T10:42:12;13.52;;;4.50;;
41219;SDS011;26951;47.338;9.196;2023-08-24T10:44:57;16.73;;;5.88;;
41219;SDS011;26951;47.338;9.196;2023-08-24T10:47:45;11.68;;;4.78;;
41219;SDS011;26951;47.338;9.196;2023-08-24T10:50:30;9.55;;;4.38;;
41219;SDS011;26951;47.338;9.196;2023-08-24T10:53:33;12.07;;;4.47;;
41219;SDS011;26951;47.338;9.196;2023-08-24T10:59:24;11.25;;;4.13;;
41219;SDS011;26951;47.338;9.196;2023-08-24T11:02:08;11.95;;;4.80;;
41219;SDS011;26951;47.338;9.196;2023-08-24T11:05:15;10.95;;;4.40;;
41219;SDS011;26951;47.338;9.196;2023-08-24T11:08:02;9.43;;;4.65;;
41219;SDS011;26951;47.338;9.196;2023-08-24T11:10:47;12.80;;;4.30;;
41219;SDS011;26951;47.338;9.196;2023-08-24T11:13:31;13.77;;;5.30;;
41219;SDS011;26951;47.338;9.196;2023-08-24T11:16:37;15.40;;;5.82;;
41219;SDS011;26951;47.338;9.196;2023-08-24T11:19:22;9.88;;;4.22;;
41219;SDS011;26951;47.338;9.196;2023-08-24T11:22:07;10.38;;;4.40;;
41219;SDS011;26951;47.338;9.196;2023-08-24T11:24:52;11.93;;;4.30;;
41219;SDS011;26951;47.338;9.196;2023-08-24T11:27:36;11.68;;;4.65;;
41219;SDS011;26951;47.338;9.196;2023-08-24T11:30:21;9.57;;;4.80;;
41219;SDS011;26951;47.338;9.196;2023-08-24T11:33:05;18.50;;;4.90;;
41219;SDS011;26951;47.338;9.196;2023-08-24T11:35:50;9.65;;;4.32;;
41219;SDS011;26951;47.338;9.196;2023-08-24T11:38:37;18.63;;;6.03;;
41219;SDS011;26951;47.338;9.196;2023-08-24T11:41:25;12.95;;;5.18;;
41219;SDS011;26951;47.338;9.196;2023-08-24T11:44:10;15.77;;;4.63;;
41219;SDS011;26951;47.338;9.196;2023-08-24T11:46:57;11.25;;;4.47;;
41219;SDS011;26951;47.338;9.196;2023-08-24T11:49:42;14.73;;;5.03;;
41219;SDS011;26951;47.338;9.196;2023-08-24T11:52:27;9.57;;;4.78;;
41219;SDS011;26951;47.338;9.196;2023-08-24T11:55:11;9.52;;;4.13;;
41219;SDS011;26951;47.338;9.196;2023-08-24T11:57:56;9.52;;;5.05;;
41219;SDS011;26951;47.338;9.196;2023-08-24T12:00:40;11.68;;;5.05;;
41219;SDS011;26951;47.338;9.196;2023-08-24T12:03:24;9.30;;;4.10;;
41219;SDS011;26951;47.338;9.196;2023-08-24T12:06:16;23.15;;;5.13;;
41219;SDS011;26951;47.338;9.196;2023-08-24T12:09:01;15.23;;;4.82;;
41219;SDS011;26951;47.338;9.196;2023-08-24T12:11:49;17.92;;;5.93;;
41219;SDS011;26951;47.338;9.196;2023-08-24T12:14:42;14.52;;;4.80;;
41219;SDS011;26951;47.338;9.196;2023-08-24T12:17:26;11.88;;;4.85;;
41219;SDS011;26951;47.338;9.196;2023-08-24T12:20:18;17.17;;;5.20;;
41219;SDS011;26951;47.338;9.196;2023-08-24T12:23:05;13.43;;;4.75;;
41219;SDS011;26951;47.338;9.196;2023-08-24T12:25:53;14.23;;;4.85;;
41219;SDS011;26951;47.338;9.196;2023-08-24T12:28:38;12.48;;;4.47;;
41219;SDS011;26951;47.338;9.196;2023-08-24T12:31:26;13.75;;;4.60;;
41219;SDS011;26951;47.338;9.196;2023-08-24T12:34:13;11.75;;;4.10;;
41219;SDS011;26951;47.338;9.196;2023-08-24T12:36:58;16.20;;;5.10;;
41219;SDS011;26951;47.338;9.196;2023-08-24T12:39:43;12.65;;;4.50;;
41219;SDS011;26951;47.338;9.196;2023-08-24T12:42:27;14.15;;;4.70;;
41219;SDS011;26951;47.338;9.196;2023-08-24T12:45:11;13.43;;;4.47;;
41219;SDS011;26951;47.338;9.196;2023-08-24T12:47:55;12.70;;;4.38;;
41219;SDS011;26951;47.338;9.196;2023-08-24T12:50:39;12.20;;;4.55;;
41219;SDS011;26951;47.338;9.196;2023-08-24T12:53:23;15.77;;;4.47;;
41219;SDS011;26951;47.338;9.196;2023-08-24T12:56:07;12.93;;;4.47;;
41219;SDS011;26951;47.338;9.196;2023-08-24T12:58:51;18.08;;;4.43;;
41219;SDS011;26951;47.338;9.196;2023-08-24T13:01:35;12.18;;;4.85;;
41219;SDS011;26951;47.338;9.196;2023-08-24T13:04:19;15.05;;;3.95;;
41219;SDS011;26951;47.338;9.196;2023-08-24T13:07:03;12.50;;;4.35;;
41219;SDS011;26951;47.338;9.196;2023-08-24T13:09:48;12.52;;;4.15;;
41219;SDS011;26951;47.338;9.196;2023-08-24T13:12:32;12.20;;;4.60;;
41219;SDS011;26951;47.338;9.196;2023-08-24T13:15:18;12.95;;;4.43;;
41219;SDS011;26951;47.338;9.196;2023-08-24T13:18:02;13.93;;;4.97;;
41219;SDS011;26951;47.338;9.196;2023-08-24T13:23:31;12.25;;;4.47;;
41219;SDS011;26951;47.338;9.196;2023-08-24T13:26:18;12.57;;;4.68;;
41219;SDS011;26951;47.338;9.196;2023-08-24T13:29:03;15.02;;;4.57;;
41219;SDS011;26951;47.338;9.196;2023-08-24T13:34:32;9.35;;;4.75;;
41219;SDS011;26951;47.338;9.196;2023-08-24T13:37:17;14.80;;;5.25;;
41219;SDS011;26951;47.338;9.196;2023-08-24T13:40:02;10.00;;;4.70;;
41219;SDS011;26951;47.338;9.196;2023-08-24T13:42:47;14.15;;;5.05;;
41219;SDS011;26951;47.338;9.196;2023-08-24T13:45:31;11.32;;;4.43;;
41219;SDS011;26951;47.338;9.196;2023-08-24T13:48:18;12.85;;;4.10;;
41219;SDS011;26951;47.338;9.196;2023-08-24T13:51:02;9.90;;;4.57;;
41219;SDS011;26951;47.338;9.196;2023-08-24T13:53:47;9.75;;;4.28;;
41219;SDS011;26951;47.338;9.196;2023-08-24T13:56:31;12.32;;;4.72;;
41219;SDS011;26951;47.338;9.196;2023-08-24T13:59:15;12.40;;;5.57;;
41219;SDS011;26951;47.338;9.196;2023-08-24T14:02:00;24.95;;;4.95;;
41219;SDS011;26951;47.338;9.196;2023-08-24T14:04:44;17.92;;;4.82;;
41219;SDS011;26951;47.338;9.196;2023-08-24T14:07:28;9.23;;;4.55;;
41219;SDS011;26951;47.338;9.196;2023-08-24T14:10:12;11.55;;;4.22;;
41219;SDS011;26951;47.338;9.196;2023-08-24T14:12:56;11.77;;;4.28;;
41219;SDS011;26951;47.338;9.196;2023-08-24T14:15:40;16.75;;;4.45;;
41219;SDS011;26951;47.338;9.196;2023-08-24T14:18:24;9.90;;;3.80;;
41219;SDS011;26951;47.338;9.196;2023-08-24T14:21:08;8.98;;;4.60;;
41219;SDS011;26951;47.338;9.196;2023-08-24T14:23:53;10.35;;;4.30;;
41219;SDS011;26951;47.338;9.196;2023-08-24T14:29:22;14.45;;;4.35;;
41219;SDS011;26951;47.338;9.196;2023-08-24T14:34:51;11.07;;;4.32;;
41219;SDS011;26951;47.338;9.196;2023-08-24T14:37:35;11.00;;;4.90;;
41219;SDS011;26951;47.338;9.196;2023-08-24T14:40:19;10.27;;;4.30;;
41219;SDS011;26951;47.338;9.196;2023-08-24T14:43:03;6.20;;;3.97;;
41219;SDS011;26951;47.338;9.196;2023-08-24T14:45:47;10.30;;;4.97;;
41219;SDS011;26951;47.338;9.196;2023-08-24T14:48:32;11.13;;;3.80;;
41219;SDS011;26951;47.338;9.196;2023-08-24T14:51:16;7.45;;;3.85;;
41219;SDS011;26951;47.338;9.196;2023-08-24T14:54:00;16.90;;;5.07;;
41219;SDS011;26951;47.338;9.196;2023-08-24T14:56:44;11.65;;;4.60;;
41219;SDS011;26951;47.338;9.196;2023-08-24T14:59:28;14.77;;;5.13;;
41219;SDS011;26951;47.338;9.196;2023-08-24T15:02:12;12.10;;;4.55;;
41219;SDS011;26951;47.338;9.196;2023-08-24T15:04:56;14.32;;;4.20;;
41219;SDS011;26951;47.338;9.196;2023-08-24T15:07:41;16.15;;;4.60;;
41219;SDS011;26951;47.338;9.196;2023-08-24T15:10:25;9.05;;;4.70;;
41219;SDS011;26951;47.338;9.196;2023-08-24T15:13:09;9.20;;;4.05;;
41219;SDS011;26951;47.338;9.196;2023-08-24T15:15:54;10.90;;;4.88;;
41219;SDS011;26951;47.338;9.196;2023-08-24T15:18:39;7.03;;;3.83;;
41219;SDS011;26951;47.338;9.196;2023-08-24T15:21:23;10.27;;;3.85;;
41219;SDS011;26951;47.338;9.196;2023-08-24T15:24:07;11.63;;;5.15;;
41219;SDS011;26951;47.338;9.196;2023-08-24T15:26:52;12.77;;;5.25;;
41219;SDS011;26951;47.338;9.196;2023-08-24T15:29:36;7.85;;;3.97;;
41219;SDS011;26951;47.338;9.196;2023-08-24T15:32:20;10.05;;;4.60;;
41219;SDS011;26951;47.338;9.196;2023-08-24T15:35:04;13.98;;;5.00;;
41219;SDS011;26951;47.338;9.196;2023-08-24T15:37:49;8.02;;;4.35;;
41219;SDS011;26951;47.338;9.196;2023-08-24T15:40:33;15.48;;;4.22;;
41219;SDS011;26951;47.338;9.196;2023-08-24T15:43:18;8.18;;;4.82;;
41219;SDS011;26951;47.338;9.196;2023-08-24T15:46:02;6.63;;;4.55;;
41219;SDS011;26951;47.338;9.196;2023-08-24T15:48:46;9.55;;;4.70;;
41219;SDS011;26951;47.338;9.196;2023-08-24T15:51:30;5.95;;;4.10;;
41219;SDS011;26951;47.338;9.196;2023-08-24T15:54:15;6.82;;;4.05;;
41219;SDS011;26951;47.338;9.196;2023-08-24T15:56:59;8.02;;;3.78;;
41219;SDS011;26951;47.338;9.196;2023-08-24T15:59:43;7.97;;;4.13;;
41219;SDS011;26951;47.338;9.196;2023-08-24T16:02:27;8.60;;;4.45;;
41219;SDS011;26951;47.338;9.196;2023-08-24T16:05:11;9.18;;;3.95;;
41219;SDS011;26951;47.338;9.196;2023-08-24T16:07:56;6.70;;;4.35;;
41219;SDS011;26951;47.338;9.196;2023-08-24T16:10:40;9.45;;;4.32;;
41219;SDS011;26951;47.338;9.196;2023-08-24T16:13:26;7.47;;;4.60;;
41219;SDS011;26951;47.338;9.196;2023-08-24T16:16:10;6.63;;;4.00;;
41219;SDS011;26951;47.338;9.196;2023-08-24T16:18:54;13.40;;;5.03;;
41219;SDS011;26951;47.338;9.196;2023-08-24T16:21:42;12.00;;;4.60;;
41219;SDS011;26951;47.338;9.196;2023-08-24T16:24:26;10.13;;;4.47;;
41219;SDS011;26951;47.338;9.196;2023-08-24T16:27:10;11.35;;;5.28;;
41219;SDS011;26951;47.338;9.196;2023-08-24T16:29:55;12.23;;;4.90;;
41219;SDS011;26951;47.338;9.196;2023-08-24T16:35:24;6.20;;;4.35;;
41219;SDS011;26951;47.338;9.196;2023-08-24T16:40:52;9.35;;;4.25;;
41219;SDS011;26951;47.338;9.196;2023-08-24T16:43:36;9.70;;;4.13;;
41219;SDS011;26951;47.338;9.196;2023-08-24T16:46:20;6.72;;;4.30;;
41219;SDS011;26951;47.338;9.196;2023-08-24T16:49:04;7.85;;;4.18;;
41219;SDS011;26951;47.338;9.196;2023-08-24T16:51:49;9.13;;;4.60;;
41219;SDS011;26951;47.338;9.196;2023-08-24T16:54:32;11.73;;;4.57;;
41219;SDS011;26951;47.338;9.196;2023-08-24T16:57:17;9.50;;;4.75;;
41219;SDS011;26951;47.338;9.196;2023-08-24T17:00:01;13.82;;;5.45;;
41219;SDS011;26951;47.338;9.196;2023-08-24T17:05:30;15.02;;;5.05;;
41219;SDS011;26951;47.338;9.196;2023-08-24T17:08:14;10.50;;;5.38;;
41219;SDS011;26951;47.338;9.196;2023-08-24T17:10:59;9.20;;;4.82;;
41219;SDS011;26951;47.338;9.196;2023-08-24T17:13:43;10.45;;;5.13;;